Time;durP1;ratioP1;P1;durP2;ratioP2;P2;SDS_P1;SDS_P2;PMS_P1;PMS_P2;Temp;Humidity;BMP_temperature;BMP_pressure;BME280_temperature;BME280_humidity;BME280_pressure;Samples;Min_cycle;Max_cycle;Signal;HPM_P1;HPM_P2
2023/03/11 00:02:16;;;;;;;11.30;9.73;;;0.60;99.90;;;;;;5045258;28;20215;-56
2023/03/11 00:04:43;;;;;;;13.13;10.67;;;0.60;99.90;;;;;;5042426;28;20223;-51
2023/03/11 00:07:11;;;;;;;16.80;10.70;;;0.50;99.90;;;;;;5054483;28;20311;-50
2023/03/11 00:09:38;;;;;;;14.37;9.83;;;0.60;99.90;;;;;;5045976;28;20271;-49
2023/03/11 00:12:07;;;;;;;14.60;10.87;;;0.60;99.90;;;;;;5051930;28;20613;-46
2023/03/11 00:14:34;;;;;;;13.93;10.27;;;0.60;99.90;;;;;;5050620;28;20848;-47
2023/03/11 00:17:01;;;;;;;13.43;10.57;;;0.60;99.90;;;;;;5048033;28;20202;-49
2023/03/11 00:19:28;;;;;;;13.87;10.50;;;0.60;99.90;;;;;;5042228;28;20214;-55
2023/03/11 00:21:55;;;;;;;13.30;10.87;;;0.60;99.90;;;;;;5049805;28;20211;-47
2023/03/11 00:24:22;;;;;;;15.20;10.77;;;0.60;99.90;;;;;;5041497;28;20228;-59
2023/03/11 00:26:49;;;;;;;16.73;11.23;;;0.60;99.90;;;;;;5050075;28;20233;-48
2023/03/11 00:29:18;;;;;;;16.03;11.30;;;0.60;99.90;;;;;;5046941;28;20207;-57
2023/03/11 00:31:45;;;;;;;15.83;10.50;;;0.60;99.90;;;;;;5044247;28;20203;-47
2023/03/11 00:34:11;;;;;;;17.37;11.23;;;0.60;99.90;;;;;;5046703;28;20233;-58
2023/03/11 00:36:39;;;;;;;16.13;11.60;;;0.60;99.90;;;;;;5046168;28;20199;-47
2023/03/11 00:39:06;;;;;;;15.40;11.27;;;0.60;99.90;;;;;;5044982;28;20217;-51
2023/03/11 00:41:33;;;;;;;17.17;11.43;;;0.60;99.90;;;;;;5038870;28;20209;-47
2023/03/11 00:44:00;;;;;;;16.43;11.00;;;0.70;99.90;;;;;;5049886;28;20594;-49
2023/03/11 00:46:29;;;;;;;15.80;11.60;;;0.60;99.90;;;;;;5046478;28;20233;-56
2023/03/11 00:48:57;;;;;;;16.57;11.53;;;0.60;99.90;;;;;;5043093;28;20243;-46
2023/03/11 00:51:23;;;;;;;16.40;12.17;;;0.60;99.90;;;;;;5049642;28;20252;-55
2023/03/11 00:53:50;;;;;;;18.07;11.93;;;0.70;99.90;;;;;;5057446;28;20229;-46
2023/03/11 00:56:18;;;;;;;15.60;11.97;;;0.70;99.90;;;;;;5043105;28;20197;-57
2023/03/11 00:58:45;;;;;;;16.07;11.73;;;0.70;99.90;;;;;;5046181;28;20205;-47
2023/03/11 01:01:15;;;;;;;18.53;12.27;;;0.70;99.90;;;;;;5048554;28;20735;-55
2023/03/11 01:03:44;;;;;;;19.90;12.40;;;0.70;99.90;;;;;;5041232;28;20315;-47
2023/03/11 01:06:12;;;;;;;17.07;11.10;;;0.70;99.90;;;;;;5044677;28;20246;-56
2023/03/11 01:08:40;;;;;;;16.73;11.93;;;0.70;99.90;;;;;;5040420;28;20208;-48
2023/03/11 01:11:07;;;;;;;19.33;12.07;;;0.70;99.90;;;;;;5045285;28;20206;-52
2023/03/11 01:13:35;;;;;;;15.87;11.93;;;0.60;99.90;;;;;;5035731;28;20220;-47
2023/03/11 01:16:02;;;;;;;18.23;12.60;;;0.70;99.90;;;;;;5051583;28;20206;-46
2023/03/11 01:18:29;;;;;;;17.30;11.30;;;0.70;99.90;;;;;;5049892;28;20201;-54
2023/03/11 01:20:57;;;;;;;14.17;10.47;;;0.70;99.90;;;;;;5048699;28;20215;-48
2023/03/11 01:23:24;;;;;;;16.73;11.53;;;0.60;99.90;;;;;;5045154;28;20229;-55
2023/03/11 01:25:51;;;;;;;14.27;10.47;;;0.70;99.90;;;;;;5052845;28;20202;-49
2023/03/11 01:28:36;;;;;;;17.17;11.10;;;0.60;99.90;;;;;;5033630;28;20995;-46
2023/03/11 01:31:03;;;;;;;14.50;11.33;;;0.60;99.90;;;;;;5050493;28;20206;-47
2023/03/11 01:33:30;;;;;;;16.67;12.00;;;0.60;99.90;;;;;;5038837;28;21006;-46
2023/03/11 01:35:58;;;;;;;15.00;10.83;;;0.60;99.90;;;;;;5052564;28;20210;-46
2023/03/11 01:38:27;;;;;;;16.33;11.03;;;0.60;99.90;;;;;;5060188;28;20255;-56
2023/03/11 01:40:54;;;;;;;17.23;11.60;;;0.60;99.90;;;;;;5048797;28;20203;-49
2023/03/11 01:43:47;;;;;;;19.03;11.33;;;0.60;99.90;;;;;;5031728;28;20252;-55
2023/03/11 01:46:23;;;;;;;13.60;10.43;;;0.60;99.90;;;;;;5044971;28;20214;-53
2023/03/11 01:48:52;;;;;;;12.70;10.33;;;0.60;99.90;;;;;;5043533;28;20206;-49
2023/03/11 01:51:27;;;;;;;13.80;10.13;;;0.60;99.90;;;;;;5042298;28;20610;-54
2023/03/11 01:53:56;;;;;;;14.47;9.90;;;0.60;99.90;;;;;;5047823;28;20272;-46
2023/03/11 01:56:24;;;;;;;14.17;11.23;;;0.60;99.90;;;;;;5048382;28;20191;-55
2023/03/11 01:58:54;;;;;;;15.87;11.40;;;0.60;99.90;;;;;;5033658;28;20651;-48
2023/03/11 02:01:23;;;;;;;13.43;10.43;;;0.60;99.90;;;;;;5050448;28;20270;-55
2023/03/11 02:03:50;;;;;;;14.97;11.20;;;0.50;99.90;;;;;;5044828;28;20214;-46
2023/03/11 02:06:22;;;;;;;15.83;11.07;;;0.50;99.90;;;;;;5037744;28;20220;-54
2023/03/11 02:08:50;;;;;;;15.63;11.27;;;0.50;99.90;;;;;;5060930;28;20290;-45
2023/03/11 02:11:22;;;;;;;14.73;10.30;;;0.50;99.90;;;;;;5048799;28;20204;-55
2023/03/11 02:13:56;;;;;;;12.13;9.07;;;0.40;99.90;;;;;;5032265;28;20230;-48
2023/03/11 02:16:25;;;;;;;15.07;10.43;;;0.40;99.90;;;;;;5045337;28;20227;-55
2023/03/11 02:18:52;;;;;;;13.77;10.30;;;0.40;99.90;;;;;;5041516;28;20236;-45
2023/03/11 02:21:25;;;;;;;12.47;9.63;;;0.30;99.90;;;;;;5039871;28;20290;-56
2023/03/11 02:23:59;;;;;;;15.83;10.80;;;0.30;99.90;;;;;;5050216;28;20236;-51
2023/03/11 02:26:33;;;;;;;13.57;9.63;;;0.30;99.90;;;;;;5046464;28;20196;-54
2023/03/11 02:29:04;;;;;;;13.90;9.73;;;0.30;99.90;;;;;;5042251;28;20621;-45
2023/03/11 02:31:33;;;;;;;14.17;10.13;;;0.30;99.90;;;;;;5034839;28;20263;-49
2023/03/11 02:34:04;;;;;;;12.37;9.70;;;0.30;99.90;;;;;;5050441;28;20228;-50
2023/03/11 02:36:34;;;;;;;12.63;10.27;;;0.30;99.90;;;;;;5042731;28;20288;-47
2023/03/11 02:39:02;;;;;;;13.60;9.77;;;0.30;99.90;;;;;;5050870;28;20294;-48
2023/03/11 02:41:31;;;;;;;12.50;10.63;;;0.20;99.90;;;;;;5046651;28;20304;-53
2023/03/11 02:44:01;;;;;;;17.13;10.83;;;0.20;99.90;;;;;;5041693;28;20312;-45
2023/03/11 02:46:31;;;;;;;11.75;9.55;;;0.30;99.90;;;;;;5037716;28;20204;-54
2023/03/11 02:48:59;;;;;;;13.20;9.67;;;0.20;99.90;;;;;;5051012;28;20907;-52
2023/03/11 02:51:26;;;;;;;13.60;10.03;;;0.20;99.90;;;;;;5039364;28;20230;-56
2023/03/11 02:53:57;;;;;;;12.83;9.47;;;0.20;99.90;;;;;;5045446;28;20221;-48
2023/03/11 02:56:23;;;;;;;11.53;8.87;;;0.20;99.90;;;;;;5049694;28;20201;-54
2023/03/11 02:58:50;;;;;;;12.77;8.57;;;0.20;99.90;;;;;;5041938;28;20655;-46
2023/03/11 03:01:18;;;;;;;13.07;9.40;;;0.10;99.90;;;;;;5052627;28;20203;-58
2023/03/11 03:03:46;;;;;;;10.87;8.30;;;0.10;99.90;;;;;;5038409;28;20499;-52
2023/03/11 03:06:13;;;;;;;12.77;9.03;;;0.10;99.90;;;;;;5048686;28;20194;-54
2023/03/11 03:08:40;;;;;;;12.23;8.67;;;0.10;99.90;;;;;;5035774;28;20215;-50
2023/03/11 03:11:08;;;;;;;11.00;8.97;;;0.10;99.90;;;;;;5045742;28;20194;-49
2023/03/11 03:13:35;;;;;;;12.00;7.93;;;0.10;99.90;;;;;;5036661;28;20304;-46
2023/03/11 03:16:02;;;;;;;9.53;8.13;;;0.10;99.90;;;;;;5049101;28;20201;-46
2023/03/11 03:18:30;;;;;;;12.57;8.03;;;0.00;99.90;;;;;;5037478;28;20197;-56
2023/03/11 03:20:57;;;;;;;9.70;7.90;;;0.00;99.90;;;;;;5046094;28;20691;-49
2023/03/11 03:23:27;;;;;;;11.70;8.83;;;0.00;99.90;;;;;;5050883;28;20314;-55
2023/03/11 03:25:54;;;;;;;9.33;7.40;;;0.00;99.90;;;;;;5042459;28;20200;-49
2023/03/11 03:28:21;;;;;;;9.20;7.27;;;0.00;99.90;;;;;;5044591;28;20221;-54
2023/03/11 03:30:49;;;;;;;11.47;8.13;;;0.00;99.90;;;;;;5040579;28;20198;-45
2023/03/11 03:33:17;;;;;;;9.33;7.27;;;0.00;99.90;;;;;;5033671;28;20716;-55
2023/03/11 03:35:46;;;;;;;11.83;8.33;;;0.00;99.90;;;;;;5041537;28;20269;-50
2023/03/11 03:38:23;;;;;;;11.67;8.00;;;0.00;99.90;;;;;;5038921;28;20209;-56
2023/03/11 03:40:52;;;;;;;9.93;7.77;;;0.00;99.90;;;;;;5036894;28;20201;-55
2023/03/11 03:43:20;;;;;;;11.20;8.70;;;0.00;99.90;;;;;;5045734;28;20747;-56
2023/03/11 03:46:06;;;;;;;12.97;8.50;;;0.00;99.90;;;;;;5044588;28;20224;-45
2023/03/11 03:48:41;;;;;;;13.37;8.80;;;0.10;99.90;;;;;;5036792;28;20224;-50
2023/03/11 03:51:12;;;;;;;10.70;8.30;;;0.10;99.90;;;;;;5050082;28;20579;-47
2023/03/11 03:54:01;;;;;;;11.37;8.33;;;0.10;99.90;;;;;;5055192;28;20381;-50
2023/03/11 03:56:28;;;;;;;11.40;9.03;;;0.10;99.90;;;;;;5041493;28;20244;-57
2023/03/11 03:58:55;;;;;;;10.13;8.13;;;0.10;99.90;;;;;;5053482;28;20574;-48
2023/03/11 04:01:25;;;;;;;10.33;8.13;;;0.10;99.90;;;;;;5057168;28;20844;-56
2023/03/11 04:03:53;;;;;;;11.43;8.03;;;0.10;99.90;;;;;;5031819;28;20698;-45
2023/03/11 04:06:24;;;;;;;11.00;7.93;;;0.10;99.90;;;;;;5051474;28;20213;-51
2023/03/11 04:08:57;;;;;;;10.27;7.77;;;0.10;99.90;;;;;;5049437;28;20221;-46
2023/03/11 04:11:29;;;;;;;9.20;7.93;;;0.10;99.90;;;;;;5035334;28;20696;-56
2023/03/11 04:13:56;;;;;;;10.43;8.03;;;0.10;99.90;;;;;;5040833;28;20288;-47
2023/03/11 04:16:24;;;;;;;9.97;7.43;;;0.10;99.90;;;;;;5045739;28;20290;-55
2023/03/11 04:18:57;;;;;;;9.40;7.70;;;0.10;99.90;;;;;;5044410;28;20299;-46
2023/03/11 04:21:26;;;;;;;9.50;7.13;;;0.10;99.90;;;;;;5056116;28;20261;-56
2023/03/11 04:23:54;;;;;;;10.90;7.90;;;0.10;99.90;;;;;;5047926;28;20411;-49
2023/03/11 04:26:28;;;;;;;10.43;7.20;;;0.10;99.90;;;;;;5049672;28;20192;-55
2023/03/11 04:28:55;;;;;;;10.00;7.40;;;0.10;99.90;;;;;;5050562;28;20226;-45
2023/03/11 04:31:23;;;;;;;10.57;7.50;;;0.10;99.90;;;;;;5042795;28;20567;-56
2023/03/11 04:33:50;;;;;;;11.83;8.20;;;0.00;99.90;;;;;;5032007;28;20233;-47
2023/03/11 04:36:40;;;;;;;10.33;7.67;;;0.00;99.90;;;;;;5046416;28;20216;-45
2023/03/11 04:39:08;;;;;;;9.90;7.07;;;0.00;99.90;;;;;;5050484;28;20211;-50
2023/03/11 04:41:40;;;;;;;9.23;7.60;;;-0.10;99.90;;;;;;5048617;28;20791;-48
2023/03/11 04:44:09;;;;;;;10.13;7.90;;;-0.10;99.90;;;;;;5043999;28;20246;-47
2023/03/11 04:46:36;;;;;;;12.33;8.30;;;-0.20;99.90;;;;;;5041751;28;20215;-45
2023/03/11 04:49:05;;;;;;;12.10;7.73;;;-0.20;99.90;;;;;;5045482;28;20225;-46
2023/03/11 04:51:56;;;;;;;10.37;7.30;;;-0.20;99.90;;;;;;5052995;28;20255;-52
2023/03/11 04:54:44;;;;;;;9.97;7.37;;;-0.20;99.90;;;;;;5043050;28;20228;-46
2023/03/11 04:57:12;;;;;;;9.27;6.67;;;-0.30;99.90;;;;;;5043557;28;20206;-52
2023/03/11 04:59:42;;;;;;;9.00;7.27;;;-0.30;99.90;;;;;;5042813;28;20201;-47
2023/03/11 05:02:09;;;;;;;11.80;7.10;;;-0.30;99.90;;;;;;5045319;28;20202;-50
2023/03/11 05:04:37;;;;;;;9.50;7.33;;;-0.40;99.90;;;;;;5044155;28;20306;-46
2023/03/11 05:07:05;;;;;;;8.53;7.27;;;-0.40;99.90;;;;;;5035074;28;20287;-47
2023/03/11 05:09:32;;;;;;;11.90;7.30;;;-0.50;99.90;;;;;;5047457;28;20210;-47
2023/03/11 05:11:59;;;;;;;8.50;6.60;;;-0.50;99.90;;;;;;5057645;28;20207;-45
2023/03/11 05:14:27;;;;;;;9.07;7.10;;;-0.50;99.90;;;;;;5039338;28;20704;-56
2023/03/11 05:16:56;;;;;;;10.43;7.83;;;-0.50;99.90;;;;;;5047131;28;20243;-51
2023/03/11 05:19:33;;;;;;;10.53;7.93;;;-0.60;99.90;;;;;;5043192;28;20194;-55
2023/03/11 05:22:06;;;;;;;10.67;7.03;;;-0.60;99.90;;;;;;5035802;28;20218;-49
2023/03/11 05:24:33;;;;;;;10.10;7.80;;;-0.70;99.90;;;;;;5048093;28;20238;-46
2023/03/11 05:27:01;;;;;;;10.80;7.77;;;-0.70;99.90;;;;;;5046691;28;20189;-46
2023/03/11 05:29:28;;;;;;;9.03;7.37;;;-0.70;99.90;;;;;;5035362;28;20214;-57
2023/03/11 05:31:55;;;;;;;10.37;7.50;;;-0.80;99.90;;;;;;5045709;28;20231;-48
2023/03/11 05:34:22;;;;;;;12.23;8.33;;;-0.80;99.90;;;;;;5047093;28;20243;-54
2023/03/11 05:36:49;;;;;;;10.80;7.73;;;-0.80;99.90;;;;;;5044785;28;20203;-54
2023/03/11 05:39:18;;;;;;;9.57;7.03;;;-0.90;99.90;;;;;;5050917;28;20223;-55
2023/03/11 05:41:46;;;;;;;10.40;7.50;;;-0.90;99.90;;;;;;5041273;28;20998;-45
2023/03/11 05:44:13;;;;;;;11.57;7.40;;;-0.90;99.90;;;;;;5044038;28;20232;-56
2023/03/11 05:46:41;;;;;;;10.13;7.43;;;-1.00;99.90;;;;;;5039276;28;20232;-45
2023/03/11 05:49:07;;;;;;;10.13;7.83;;;-1.00;99.90;;;;;;5056555;28;20221;-48
2023/03/11 05:51:36;;;;;;;10.73;7.10;;;-1.00;99.90;;;;;;5032999;28;20212;-47
2023/03/11 05:54:06;;;;;;;10.53;7.73;;;-1.00;99.90;;;;;;5048482;28;20707;-56
2023/03/11 05:56:39;;;;;;;11.60;7.70;;;-1.10;99.90;;;;;;5043438;28;20200;-45
2023/03/11 05:59:06;;;;;;;10.17;6.97;;;-1.10;99.90;;;;;;5055105;28;20245;-46
2023/03/11 06:01:35;;;;;;;10.40;7.13;;;-1.10;99.90;;;;;;5037300;28;20212;-50
2023/03/11 06:04:01;;;;;;;9.67;7.27;;;-1.10;99.90;;;;;;5046560;28;20225;-46
2023/03/11 06:06:29;;;;;;;11.30;7.40;;;-1.20;99.90;;;;;;5043639;28;20541;-58
2023/03/11 06:08:57;;;;;;;12.07;7.80;;;-1.20;99.90;;;;;;5042964;28;20224;-48
2023/03/11 06:11:27;;;;;;;10.13;7.17;;;-1.20;99.90;;;;;;5044532;28;20228;-54
2023/03/11 06:13:57;;;;;;;8.53;6.83;;;-1.20;99.90;;;;;;5041942;28;20278;-47
2023/03/11 06:16:26;;;;;;;8.47;6.53;;;-1.20;99.90;;;;;;5040274;28;20206;-56
2023/03/11 06:18:56;;;;;;;11.87;6.90;;;-1.20;99.90;;;;;;5058512;28;20567;-47
2023/03/11 06:21:25;;;;;;;9.20;6.60;;;-1.20;99.90;;;;;;5054532;28;20618;-56
2023/03/11 06:23:52;;;;;;;11.33;7.60;;;-1.20;99.90;;;;;;5032991;28;20224;-47
2023/03/11 06:26:21;;;;;;;8.30;6.70;;;-1.20;99.90;;;;;;5051447;28;20572;-55
2023/03/11 06:28:49;;;;;;;9.30;7.07;;;-1.20;99.90;;;;;;5036688;28;20332;-54
2023/03/11 06:31:19;;;;;;;9.37;6.70;;;-1.20;99.90;;;;;;5045557;28;20373;-47
2023/03/11 06:33:47;;;;;;;13.77;7.77;;;-1.10;99.90;;;;;;5036229;28;20222;-49
2023/03/11 06:36:16;;;;;;;11.03;6.90;;;-1.20;99.90;;;;;;5044340;28;20685;-47
2023/03/11 06:38:43;;;;;;;9.73;6.50;;;-1.10;99.90;;;;;;5026022;28;20200;-54
2023/03/11 06:41:10;;;;;;;9.63;6.53;;;-1.10;99.90;;;;;;5052041;28;20224;-51
2023/03/11 06:43:37;;;;;;;9.03;7.20;;;-1.10;99.90;;;;;;5049057;28;20210;-54
2023/03/11 06:46:09;;;;;;;8.60;6.53;;;-1.10;99.90;;;;;;5044572;28;20234;-45
2023/03/11 06:48:37;;;;;;;9.73;6.80;;;-1.00;99.90;;;;;;5041285;28;20224;-55
2023/03/11 06:51:06;;;;;;;9.73;6.60;;;-1.00;99.90;;;;;;5047751;28;20615;-46
2023/03/11 06:53:33;;;;;;;9.13;7.00;;;-1.00;99.90;;;;;;5032995;28;20238;-57
2023/03/11 06:56:02;;;;;;;10.73;7.17;;;-1.00;99.90;;;;;;5045235;28;20900;-52
2023/03/11 06:58:32;;;;;;;9.40;7.07;;;-1.00;99.90;;;;;;5042372;28;20713;-57
2023/03/11 07:01:01;;;;;;;9.07;6.90;;;-1.00;99.90;;;;;;5045443;28;20188;-47
2023/03/11 07:03:28;;;;;;;10.13;7.23;;;-0.90;99.90;;;;;;5039775;28;20572;-55
2023/03/11 07:05:57;;;;;;;11.07;7.97;;;-0.80;99.90;;;;;;5043942;28;20199;-46
2023/03/11 07:08:24;;;;;;;11.40;7.27;;;-0.80;99.90;;;;;;5045912;28;20681;-45
2023/03/11 07:11:01;;;;;;;9.27;7.07;;;-0.80;99.90;;;;;;5033980;28;20195;-47
2023/03/11 07:13:28;;;;;;;10.37;6.87;;;-0.70;99.90;;;;;;5051569;28;20234;-53
2023/03/11 07:16:03;;;;;;;8.77;7.10;;;-0.70;99.90;;;;;;5048985;28;20223;-44
2023/03/11 07:18:30;;;;;;;8.53;6.40;;;-0.60;99.90;;;;;;5050018;28;20195;-49
2023/03/11 07:20:59;;;;;;;11.67;6.77;;;-0.60;99.90;;;;;;5043665;28;20213;-47
2023/03/11 07:23:25;;;;;;;8.97;6.80;;;-0.60;99.90;;;;;;5047675;28;20226;-53
2023/03/11 07:25:54;;;;;;;9.70;6.73;;;-0.50;99.90;;;;;;5029942;28;20268;-45
2023/03/11 07:28:21;;;;;;;13.10;6.87;;;-0.40;99.90;;;;;;5052277;28;20228;-45
2023/03/11 07:30:48;;;;;;;8.53;7.03;;;-0.40;99.90;;;;;;5037407;28;20196;-43
2023/03/11 07:33:15;;;;;;;9.07;6.87;;;-0.40;99.90;;;;;;5046812;28;20277;-44
2023/03/11 07:35:43;;;;;;;8.30;6.27;;;-0.30;99.90;;;;;;5038850;28;20290;-51
2023/03/11 07:38:11;;;;;;;10.80;7.03;;;-0.30;99.90;;;;;;5046706;28;20244;-45
2023/03/11 07:40:38;;;;;;;9.40;6.30;;;-0.20;99.90;;;;;;5040577;28;20291;-53
2023/03/11 07:43:05;;;;;;;9.70;6.57;;;-0.20;99.90;;;;;;5041310;28;20220;-44
2023/03/11 07:45:32;;;;;;;8.73;6.13;;;-0.10;99.90;;;;;;5048825;28;20681;-52
2023/03/11 07:47:59;;;;;;;8.97;6.40;;;-0.10;99.90;;;;;;5042800;28;20189;-45
2023/03/11 07:50:26;;;;;;;10.33;6.90;;;0.00;99.90;;;;;;5047324;28;20221;-49
2023/03/11 07:52:53;;;;;;;10.47;7.70;;;0.00;99.90;;;;;;5043281;28;20206;-45
2023/03/11 07:55:21;;;;;;;8.43;6.43;;;0.10;99.90;;;;;;5046756;28;20199;-46
2023/03/11 07:57:50;;;;;;;9.73;6.57;;;0.20;99.90;;;;;;5038540;28;20288;-45
2023/03/11 08:00:18;;;;;;;10.20;7.03;;;0.20;99.90;;;;;;5051101;28;20246;-46
2023/03/11 08:02:44;;;;;;;7.97;6.47;;;0.30;99.90;;;;;;5039843;28;20204;-56
2023/03/11 08:05:33;;;;;;;10.83;6.40;;;0.50;99.90;;;;;;5045232;28;20223;-55
2023/03/11 08:08:00;;;;;;;7.37;5.97;;;0.60;99.90;;;;;;5055350;28;20189;-46
2023/03/11 08:10:28;;;;;;;8.13;6.13;;;0.60;99.90;;;;;;5050733;28;20221;-53
2023/03/11 08:12:55;;;;;;;8.50;6.57;;;0.60;99.90;;;;;;5030579;28;20920;-45
2023/03/11 08:15:22;;;;;;;7.83;5.20;;;0.60;99.90;;;;;;5052396;28;20202;-47
2023/03/11 08:17:49;;;;;;;9.20;6.50;;;0.70;99.90;;;;;;5043628;28;20921;-45
2023/03/11 08:20:17;;;;;;;6.77;5.10;;;0.70;99.90;;;;;;5046296;28;20727;-49
2023/03/11 08:22:44;;;;;;;9.47;5.77;;;0.70;99.90;;;;;;5043073;28;20220;-51
2023/03/11 08:25:10;;;;;;;6.60;5.00;;;0.70;99.90;;;;;;5045895;28;20234;-48
2023/03/11 08:27:39;;;;;;;7.43;5.87;;;0.70;99.90;;;;;;5035242;28;20202;-55
2023/03/11 08:30:06;;;;;;;6.50;4.90;;;0.80;99.90;;;;;;5049316;28;20249;-46
2023/03/11 08:32:34;;;;;;;7.60;5.13;;;0.80;99.90;;;;;;5045349;28;20210;-53
2023/03/11 08:35:00;;;;;;;5.23;4.60;;;0.80;99.90;;;;;;5046135;28;20219;-45
2023/03/11 08:37:28;;;;;;;10.47;5.03;;;0.80;99.90;;;;;;5045562;28;20678;-54
2023/03/11 08:39:54;;;;;;;5.60;4.17;;;0.90;99.90;;;;;;5048074;28;20198;-45
2023/03/11 08:42:22;;;;;;;6.63;5.37;;;0.90;99.90;;;;;;5044640;28;20194;-46
2023/03/11 08:44:51;;;;;;;4.77;4.27;;;1.00;99.90;;;;;;5027634;28;20439;-46
2023/03/11 08:47:18;;;;;;;5.47;4.00;;;1.00;99.90;;;;;;5057440;28;20613;-45
2023/03/11 08:49:45;;;;;;;5.47;4.47;;;1.00;99.90;;;;;;5042729;28;20222;-48
2023/03/11 08:52:11;;;;;;;5.53;4.63;;;1.10;99.90;;;;;;5045498;28;20206;-49
2023/03/11 08:54:38;;;;;;;5.27;4.27;;;1.10;99.90;;;;;;5042305;28;20225;-52
2023/03/11 08:57:05;;;;;;;6.13;4.23;;;1.10;99.90;;;;;;5044676;28;20206;-50
2023/03/11 08:59:32;;;;;;;6.80;4.60;;;1.20;99.90;;;;;;5038857;28;20200;-56
2023/03/11 09:02:00;;;;;;;6.33;3.67;;;1.20;99.90;;;;;;5041068;28;20912;-45
2023/03/11 09:04:30;;;;;;;5.00;3.70;;;1.30;99.90;;;;;;5045538;28;20297;-55
2023/03/11 09:06:56;;;;;;;5.10;4.20;;;1.30;99.90;;;;;;5046182;28;20264;-45
2023/03/11 09:09:23;;;;;;;4.50;3.70;;;1.40;99.90;;;;;;5054911;28;20877;-45
2023/03/11 09:11:50;;;;;;;5.40;3.80;;;1.40;99.90;;;;;;5039514;28;20917;-52
2023/03/11 09:14:17;;;;;;;3.53;2.97;;;1.40;99.90;;;;;;5046201;28;20226;-49
2023/03/11 09:16:43;;;;;;;3.73;3.07;;;1.50;99.90;;;;;;5028369;28;20210;-46
2023/03/11 09:19:11;;;;;;;6.63;3.40;;;1.50;99.90;;;;;;5051536;28;20202;-52
2023/03/11 09:21:38;;;;;;;3.07;2.77;;;1.50;99.90;;;;;;5041091;28;20233;-53
2023/03/11 09:24:06;;;;;;;4.83;3.10;;;1.50;99.90;;;;;;5051208;28;20227;-54
2023/03/11 09:26:33;;;;;;;5.10;2.80;;;1.60;99.90;;;;;;5055980;28;20332;-56
2023/03/11 09:29:00;;;;;;;4.87;3.30;;;1.70;99.90;;;;;;5045545;28;20310;-48
2023/03/11 09:31:26;;;;;;;3.77;3.17;;;1.70;99.90;;;;;;5045103;28;20202;-55
2023/03/11 09:33:55;;;;;;;3.60;2.80;;;1.70;99.90;;;;;;5036478;28;20312;-45
2023/03/11 09:36:23;;;;;;;3.07;2.73;;;1.70;99.90;;;;;;5047001;28;20196;-54
2023/03/11 09:38:50;;;;;;;2.93;2.50;;;1.80;99.90;;;;;;5044368;28;20190;-45
2023/03/11 09:41:29;;;;;;;3.50;3.10;;;1.80;99.90;;;;;;5051675;28;20580;-47
2023/03/11 09:44:09;;;;;;;5.10;2.80;;;1.90;99.90;;;;;;5046408;28;20215;-45
2023/03/11 09:47:03;;;;;;;4.27;2.53;;;1.90;99.90;;;;;;5037593;28;20677;-56
2023/03/11 09:50:18;;;;;;;5.77;3.17;;;2.00;99.90;;;;;;5047581;28;20296;-45
2023/03/11 09:52:53;;;;;;;6.33;3.20;;;2.10;99.90;;;;;;5033966;28;20299;-50
2023/03/11 09:55:30;;;;;;;5.20;2.53;;;2.10;99.90;;;;;;5051080;28;20199;-55
2023/03/11 09:58:00;;;;;;;4.03;2.70;;;2.10;99.90;;;;;;5048208;28;20201;-48
2023/03/11 10:00:28;;;;;;;3.30;2.87;;;2.20;99.90;;;;;;5042555;28;20195;-54
2023/03/11 10:02:56;;;;;;;4.43;3.27;;;2.20;99.90;;;;;;5035038;28;20305;-45
2023/03/11 10:05:27;;;;;;;4.17;2.70;;;2.30;99.90;;;;;;5047250;28;20194;-54
2023/03/11 10:07:59;;;;;;;4.43;2.60;;;2.20;99.90;;;;;;5054289;28;20201;-48
2023/03/11 10:10:30;;;;;;;4.27;2.13;;;2.30;99.90;;;;;;5050213;28;20251;-56
2023/03/11 10:13:05;;;;;;;5.77;2.87;;;2.30;99.90;;;;;;5038725;28;21038;-49
2023/03/11 10:15:47;;;;;;;5.67;2.53;;;2.40;99.90;;;;;;5042727;28;20198;-54
2023/03/11 10:18:37;;;;;;;2.63;2.37;;;2.50;99.90;;;;;;5039420;28;20203;-49
2023/03/11 10:21:14;;;;;;;5.80;2.27;;;2.60;99.90;;;;;;5047851;28;20199;-46
2023/03/11 10:23:56;;;;;;;3.87;2.30;;;2.60;99.90;;;;;;5041414;28;20236;-46
2023/03/11 10:26:31;;;;;;;4.63;2.57;;;2.60;99.90;;;;;;5060330;28;20205;-45
2023/03/11 10:29:02;;;;;;;2.10;1.90;;;2.60;99.90;;;;;;5038773;28;20237;-54
2023/03/11 10:31:34;;;;;;;2.73;2.40;;;2.70;99.90;;;;;;5041827;28;20190;-46
2023/03/11 10:34:04;;;;;;;3.70;1.87;;;2.70;99.90;;;;;;5029544;28;20219;-45
2023/03/11 10:36:37;;;;;;;3.20;1.60;;;2.70;99.90;;;;;;5046212;28;20187;-47
2023/03/11 10:39:06;;;;;;;5.23;1.90;;;2.80;99.90;;;;;;5058621;28;20202;-46
2023/03/11 10:41:42;;;;;;;2.10;1.90;;;2.80;99.90;;;;;;5043670;28;20195;-45
2023/03/11 10:44:13;;;;;;;4.47;2.20;;;2.80;99.90;;;;;;5054273;28;20226;-53
2023/03/11 10:46:40;;;;;;;2.37;2.17;;;2.90;99.90;;;;;;5041016;28;20206;-49
2023/03/11 10:49:13;;;;;;;3.23;1.97;;;3.00;99.90;;;;;;5045492;28;20198;-58
2023/03/11 10:51:42;;;;;;;3.63;1.77;;;3.00;99.90;;;;;;5042542;28;20211;-49
2023/03/11 10:54:22;;;;;;;2.53;2.03;;;3.00;99.90;;;;;;5054772;28;20751;-53
2023/03/11 10:56:54;;;;;;;3.90;1.90;;;3.10;99.90;;;;;;5053343;28;20665;-45
2023/03/11 10:59:25;;;;;;;2.47;1.67;;;3.10;99.90;;;;;;5041626;28;20237;-53
2023/03/11 11:01:57;;;;;;;5.23;2.00;;;3.20;99.90;;;;;;5045969;28;20207;-47
2023/03/11 11:04:29;;;;;;;5.63;1.77;;;3.30;99.90;;;;;;5029938;28;20219;-52
2023/03/11 11:06:58;;;;;;;5.80;1.97;;;3.30;99.90;;;;;;5050610;28;20199;-45
2023/03/11 11:09:29;;;;;;;3.37;2.00;;;3.40;99.90;;;;;;5048565;28;20197;-53
2023/03/11 11:12:11;;;;;;;3.23;1.97;;;3.40;99.90;;;;;;5048433;28;20599;-47
2023/03/11 11:14:46;;;;;;;2.77;1.93;;;3.30;99.90;;;;;;5043849;28;20506;-46
2023/03/11 11:17:18;;;;;;;6.67;2.00;;;3.30;99.90;;;;;;5041402;28;20199;-51
2023/03/11 11:19:49;;;;;;;3.40;2.43;;;3.40;99.90;;;;;;5050582;28;20192;-49
2023/03/11 11:22:18;;;;;;;3.87;1.83;;;3.50;99.90;;;;;;5027749;28;20282;-55
2023/03/11 11:24:48;;;;;;;5.83;2.37;;;3.50;99.90;;;;;;5051283;28;20207;-44
2023/03/11 11:27:17;;;;;;;3.63;1.97;;;3.60;99.90;;;;;;5051041;28;20548;-53
2023/03/11 11:29:44;;;;;;;4.47;2.43;;;3.60;99.90;;;;;;5049094;28;21688;-44
2023/03/11 11:32:19;;;;;;;5.27;2.17;;;3.70;99.90;;;;;;5049325;28;20214;-52
2023/03/11 11:34:56;;;;;;;3.53;2.33;;;3.70;99.90;;;;;;5047440;28;20221;-45
2023/03/11 11:37:25;;;;;;;2.83;2.00;;;3.80;99.90;;;;;;5035797;28;20217;-54
2023/03/11 11:39:58;;;;;;;3.57;2.20;;;3.90;99.90;;;;;;5053153;28;20210;-48
2023/03/11 11:42:28;;;;;;;4.67;1.93;;;3.90;99.90;;;;;;5046471;28;20218;-54
2023/03/11 11:45:00;;;;;;;4.00;2.33;;;4.00;99.90;;;;;;5050994;28;20210;-48
2023/03/11 11:47:33;;;;;;;3.87;1.77;;;4.00;99.90;;;;;;5041977;28;20209;-45
2023/03/11 11:50:03;;;;;;;1.83;1.57;;;4.10;99.90;;;;;;5051682;28;20210;-51
2023/03/11 11:52:34;;;;;;;5.20;1.80;;;4.20;99.90;;;;;;5038434;28;20215;-45
2023/03/11 11:55:07;;;;;;;3.03;1.60;;;4.20;99.90;;;;;;5044060;28;20230;-53
2023/03/11 11:57:34;;;;;;;3.60;1.40;;;4.30;99.90;;;;;;5053280;28;20482;-46
2023/03/11 12:00:08;;;;;;;6.67;1.50;;;4.40;99.90;;;;;;5058969;28;20531;-55
2023/03/11 12:02:49;;;;;;;6.87;1.53;;;4.40;99.90;;;;;;5045020;28;20207;-48
2023/03/11 12:05:22;;;;;;;3.00;1.40;;;4.50;99.90;;;;;;5046948;28;20230;-52
2023/03/11 12:08:10;;;;;;;2.93;1.30;;;4.60;99.90;;;;;;5039031;28;20203;-46
2023/03/11 12:10:45;;;;;;;3.33;0.80;;;4.70;99.90;;;;;;5053294;28;20241;-47
2023/03/11 12:13:44;;;;;;;2.00;0.83;;;4.80;99.90;;;;;;5047012;28;20226;-49
2023/03/11 12:16:20;;;;;;;2.70;0.93;;;4.90;99.90;;;;;;5043118;28;20569;-54
2023/03/11 12:18:54;;;;;;;5.07;0.80;;;5.00;99.90;;;;;;5048412;28;20191;-47
2023/03/11 12:21:33;;;;;;;5.53;0.97;;;5.00;99.90;;;;;;5050294;28;20195;-49
2023/03/11 12:24:41;;;;;;;5.00;0.80;;;5.10;99.90;;;;;;5030579;28;20607;-45
2023/03/11 12:27:18;;;;;;;2.00;0.70;;;5.20;99.90;;;;;;5049134;28;20192;-45
2023/03/11 12:29:48;;;;;;;1.47;0.50;;;5.20;99.90;;;;;;5049399;28;20198;-51
2023/03/11 12:32:23;;;;;;;1.83;0.57;;;5.30;99.90;;;;;;5045326;28;20206;-46
2023/03/11 12:34:50;;;;;;;5.30;0.73;;;5.20;99.90;;;;;;5047464;28;20336;-54
2023/03/11 12:37:20;;;;;;;4.83;0.80;;;5.20;99.90;;;;;;5054160;28;20194;-45
2023/03/11 12:39:47;;;;;;;3.37;0.60;;;5.10;99.90;;;;;;5035649;28;20208;-54
2023/03/11 12:42:20;;;;;;;1.53;0.60;;;5.00;99.90;;;;;;5048801;28;20583;-49
2023/03/11 12:44:48;;;;;;;1.63;0.60;;;4.90;99.90;;;;;;5041595;28;20226;-51
2023/03/11 12:47:26;;;;;;;5.13;0.80;;;4.90;99.90;;;;;;5047413;28;20218;-51
2023/03/11 12:50:39;;;;;;;2.83;0.70;;;4.90;99.90;;;;;;5050021;28;20692;-46
2023/03/11 12:53:45;;;;;;;1.80;0.97;;;4.90;99.90;;;;;;5036059;28;20275;-49
2023/03/11 12:56:23;;;;;;;1.87;0.40;;;5.00;99.90;;;;;;5054348;28;20202;-49
2023/03/11 12:59:17;;;;;;;3.73;0.40;;;5.00;99.90;;;;;;5052111;28;20202;-55
2023/03/11 13:01:56;;;;;;;1.03;0.43;;;5.10;99.90;;;;;;5046813;28;20210;-55
2023/03/11 13:04:36;;;;;;;2.13;0.40;;;5.30;99.90;;;;;;5043331;28;20223;-45
2023/03/11 13:07:38;;;;;;;1.33;0.50;;;5.40;99.90;;;;;;5048781;28;20426;-45